Latest Coastal Weather Observations for Sydney Airport

IDN60701

Issued at 4:21 am EST Sunday 20 August 2017 (issued every 10 minutes, with the page automatically refreshed every 10 minutes)

About coastal observations | Map of coastal stations | Coastal observations for NSW | Marine services | Other Formats
Station Details ID: 066037 Name: SYDNEY AIRPORT AMO Lat: -33.95 Lon: 151.17 Height: 6.0 m
Data from the previous 72 hours. | See also: Recent months at Sydney Airport
Date/Time
EST
Temp
°C
Wind Pressure Rain since
9am
mm
Weather Cloud Vis
km
Sea
Height
m
Swell
Dir  Spd
kts
Gust
kts
hPa Trend Height
m
Period
s
Dir
20/04:00am 7.1 W 15 18 1022.0 - 0.4 - Mostly clear 10 - - - -
20/03:30am 7.0 W 14 17 1022.1 - 0.4 - Mostly clear 10 - - - -
20/03:00am 7.1 W 13 16 1022.0 R 0.4 Fine Mostly clear 25 - - - -
20/02:30am 7.5 W 15 17 1022.0 - 0.4 - Mostly clear 10 - - - -
20/02:00am 7.9 W 15 17 1022.1 - 0.4 - Mostly clear 10 - - - -
20/01:30am 8.4 W 13 16 1022.2 - 0.4 - - 10 - - - -
20/01:00am 9.3 WSW 12 16 1022.1 - 0.4 - - 10 - - - -
20/12:30am 9.8 SW 17 21 1022.0 - 0.4 - - 10 - - - -
20/12:00am 10.4 WSW 15 19 1021.7 R 0.4 Fine Mostly clear 25 - - - -
 
Date/Time
EST
Temp
°C
Wind Pressure Rain since
9am
mm
Weather Cloud Vis
km
Sea
Height
m
Swell
Dir  Spd
kts
Gust
kts
hPa Trend Height
m
Period
s
Dir
19/11:30pm 10.8 SW 14 18 1021.9 - 0.4 - Mostly clear 10 - - - -
19/11:00pm 11.1 SW 18 22 1021.9 - 0.4 - Mostly clear 10 - - - -
19/10:30pm 11.6 SW 19 23 1021.9 - 0.4 - Mostly clear 10 - - - -
19/10:00pm 12.0 SW 21 28 1021.7 - 0.4 - Mostly clear 10 - - - -
19/09:33pm 12.4 SSW 22 33 1021.7 - 0.4 - Mostly clear 10 - - - -
19/09:30pm 12.3 SSW 21 27 1021.7 - 0.4 - Mostly clear 10 - - - -
19/09:00pm 12.0 SW 17 22 1021.5 R 0.4 Showers Partly cloudy 22 - - - -
19/08:30pm 12.5 SSW 18 26 1021.3 - 0.4 - Mostly clear 10 - - - -
19/08:00pm 12.8 SSW 20 27 1020.9 - 0.4 - Mostly clear 10 - - - -
19/07:30pm 12.5 SSW 23 31 1020.7 - 0.4 - Partly cloudy 10 - - - -
19/07:00pm 12.0 SSW 22 31 1020.4 - 0.0 - Partly cloudy 9 - - - -
19/06:30pm 12.8 SSW 23 30 1020.1 - 0.0 Showers Mostly clear 10 - - - -
19/06:00pm 13.2 SSW 24 30 1019.8 R 0.0 Distant precip. Partly cloudy 25 - - - -
19/05:30pm 13.3 SSW 23 29 1019.3 - 0.0 - - 10 - - - -
19/05:00pm 13.5 SSW 25 30 1018.8 - 0.0 - - 10 - - - -
19/04:30pm 13.8 SSW 25 32 1018.4 - 0.0 - - 10 - - - -
19/04:00pm 14.1 SSW 23 32 1018.2 - 0.0 - - 10 - - - -
19/03:30pm 14.1 SSW 27 33 1018.1 - 0.0 - Partly cloudy 10 - - - -
19/03:00pm 14.6 SSW 24 29 1017.7 R 0.0 Fine Partly cloudy 25 - - - -
19/02:30pm 14.1 SSW 23 31 1017.5 - 0.0 - - 10 - - - -
19/02:00pm 14.1 SSW 25 31 1017.4 - 0.0 - - 10 - - - -
19/01:30pm 14.2 SSW 25 30 1017.2 - 0.0 - Partly cloudy 10 - - - -
19/01:00pm 14.3 SSW 24 32 1017.1 - 0.0 - Partly cloudy 10 - - - -
19/12:30pm 14.0 SSW 21 28 1017.1 - 0.0 - Partly cloudy 10 - - - -
19/12:00pm 13.4 SW 21 28 1017.1 R 0.0 Fine Partly cloudy 25 - - - -
19/11:30am 13.5 SSW 23 29 1017.1 - 0.0 - - 10 - - - -
19/11:00am 13.5 SSW 23 29 1017.2 - 0.0 - - 10 - - - -
19/10:30am 13.4 SSW 24 31 1017.2 - 0.0 - - 10 - - - -
19/10:05am 12.9 SW 19 29 1017.1 - 0.0 - Mostly clear 10 - - - -
19/10:00am 13.3 SW 17 22 1017.1 - 0.0 - Mostly clear 10 - - - -
19/09:30am 12.3 SW 19 25 1017.1 - 0.0 - Mostly clear 10 - - - -
19/09:00am 11.6 WSW 18 27 1016.8 R 0.0 Fine Mostly clear 25 - - - -
19/08:30am 10.8 WSW 19 25 1016.7 - 0.0 - Mostly clear 10 - - - -
19/08:00am 9.8 WSW 17 25 1016.4 - 0.0 - Mostly clear 10 - - - -
19/07:30am 9.4 W 16 21 1016.2 - 0.0 - Mostly clear 10 - - - -
19/07:00am 8.9 WSW 15 19 1016.0 - 0.0 - Mostly clear 10 - - - -
19/06:30am 8.9 WSW 15 21 1015.5 - 0.0 - Mostly clear 10 - - - -
19/06:00am 9.1 WSW 17 23 1014.9 R 0.0 Fine Mostly clear 25 - - - -
19/05:30am 9.1 WSW 18 24 1014.5 - 0.0 - Mostly clear 10 - - - -
19/05:00am 9.3 WSW 19 28 1014.1 - 0.0 - Mostly clear 10 - - - -
19/04:30am 9.5 WSW 18 23 1014.0 - 0.0 - Mostly clear 10 - - - -
19/04:00am 9.3 WSW 13 17 1014.0 - 0.0 - Mostly clear 10 - - - -
19/03:30am 8.5 W 11 15 1013.7 - 0.0 - Mostly clear 10 - - - -
19/03:00am 8.7 W 9 12 1013.6 R 0.0 Fine Clear 30 - - - -
19/02:30am 9.4 W 7 9 1013.2 - 0.0 - - 10 - - - -
19/02:00am 9.4 W 6 8 1013.2 - 0.0 - - 10 - - - -
19/01:30am 10.0 W 9 12 1013.3 - 0.0 - - 10 - - - -
19/01:00am 10.3 W 13 17 1013.1 - 0.0 - - 10 - - - -
19/12:30am 10.4 W 13 18 1013.0 - 0.0 - - 10 - - - -
19/12:00am 10.7 W 16 20 1012.9 R 0.0 Fine Mostly clear 30 - - - -
 
Date/Time
EST
Temp
°C
Wind Pressure Rain since
9am
mm
Weather Cloud Vis
km
Sea
Height
m
Swell
Dir  Spd
kts
Gust
kts
hPa Trend Height
m
Period
s
Dir
18/11:30pm 11.0 WSW 13 19 1012.7 - 0.0 - - 10 - - - -
18/11:00pm 11.0 W 13 19 1012.1 - 0.0 - - 10 - - - -
18/10:30pm 11.4 W 16 21 1012.1 - 0.0 - - 10 - - - -
18/10:00pm 11.8 W 23 29 1011.7 - 0.0 - - 10 - - - -
18/09:44pm 12.3 W 28 38 1011.6 - 0.0 - - 10 - - - -
18/09:30pm 12.3 W 27 33 1011.5 - 0.0 - - 10 - - - -
18/09:00pm 12.3 W 26 37 1011.2 F 0.0 Fine Mostly clear 30 - - - -
18/08:30pm 12.6 W 26 39 1011.2 - 0.0 - - 10 - - - -
18/08:00pm 12.8 W 27 39 1011.1 - 0.0 - - 10 - - - -
18/07:31pm 12.9 W 25 39 1010.7 - 0.0 - - 10 - - - -
18/07:30pm 12.9 W 24 31 1010.8 - 0.0 - - 10 - - - -
18/07:19pm 13.0 W 25 36 1010.9 - 0.0 - - 10 - - - -
18/07:07pm 13.0 W 19 30 1010.9 - 0.0 - - 10 - - - -
18/07:00pm 12.9 W 19 24 1011.0 - 0.0 - - 10 - - - -
18/06:30pm 13.2 W 17 22 1010.9 - 0.0 - - 10 - - - -
18/06:00pm 13.3 WSW 19 26 1010.6 R 0.0 Fine Mostly clear 30 - - - -
18/05:30pm 13.6 W 22 31 1010.1 - 0.0 - - 10 - - - -
18/05:00pm 14.5 W 21 29 1009.6 - 0.0 - - 10 - - - -
18/04:30pm 14.9 WSW 28 39 1008.9 - 0.0 - - 10 - - - -
18/04:05pm 15.4 WSW 28 44 1008.5 - 0.0 - - 10 - - - -
18/04:04pm 15.3 WSW 28 44 1008.5 - 0.0 - - 10 - - - -
18/04:00pm 15.6 WSW 24 37 1008.3 - 0.0 - - 10 - - - -
18/03:30pm 16.2 WSW 25 33 1007.8 - 0.0 - - 10 - - - -
18/03:00pm 16.4 W 30 43 1007.2 R 0.0 Fine Mostly clear 25 - - - -
18/02:30pm 17.2 W 36 48 1006.6 - 0.0 - - 10 - - - -
18/02:00pm 16.6 W 40 56 1006.4 - 0.0 - - 10 - - - -
18/01:33pm 16.7 W 34 54 1005.9 - 0.0 - - 10 - - - -
18/01:30pm 16.3 W 31 42 1006.0 - 0.0 - - 10 - - - -
18/01:21pm 16.3 W 32 46 1005.9 - 0.0 - - 10 - - - -
18/01:00pm 17.4 W 37 52 1006.3 - 0.0 - - 10 - - - -
18/12:30pm 16.9 W 34 45 1006.6 - 0.0 - - 10 - - - -
18/12:00pm 16.1 WNW 38 50 1006.2 F 0.0 Fine Mostly clear 25 - - - -
18/11:30am 16.6 W 32 47 1006.3 - 0.0 - - 10 - - - -
18/11:00am 16.1 W 31 44 1007.2 - 0.0 - - 10 - - - -
18/10:30am 15.6 W 27 35 1007.5 - 0.0 - - 10 - - - -
18/10:00am 15.2 WNW 29 41 1007.8 - 0.0 - - 10 - - - -
18/09:30am 14.8 WNW 32 41 1008.0 - 0.0 - - 10 - - - -
18/09:00am 14.0 W 29 41 1008.6 F 0.0 Fine Mostly clear 25 - - - -
18/08:30am 14.1 WNW 28 39 1008.6 - 0.0 - - 10 - - - -
18/08:21am 13.8 WNW 24 34 1008.6 - 0.0 - - 10 - - - -
18/08:00am 13.3 WNW 21 26 1008.7 - 0.0 - - 10 - - - -
18/07:30am 12.6 WNW 17 21 1009.0 - 0.0 - - 10 - - - -
18/07:00am 12.3 WNW 14 18 1008.8 - 0.0 - - 10 - - - -
18/06:30am 11.5 WNW 16 21 1008.6 - 0.0 - - 10 - - - -
18/06:00am 11.9 WNW 16 21 1008.6 R 0.0 Fine Mostly clear 25 - - - -
18/05:30am 11.8 WNW 17 21 1008.7 - 0.0 - Partly cloudy 10 - - - -
18/05:00am 12.4 W 20 25 1008.5 - 0.0 - Partly cloudy 10 - - - -
18/04:30am 13.2 WSW 29 36 1008.6 - 0.0 - Partly cloudy 10 - - - -
18/04:00am 13.7 WSW 24 29 1008.0 - 0.0 - Partly cloudy 10 - - - -
18/03:30am 13.9 WSW 20 26 1007.6 - 0.0 - Partly cloudy 10 - - - -
18/03:00am 14.4 WSW 19 24 1007.5 R 0.0 Fine Partly cloudy 30 - - - -
18/02:30am 15.0 WSW 25 34 1007.5 - 0.0 - - 10 - - - -
18/02:00am 16.2 W 17 22 1007.4 - 0.0 - - 10 - - - -
18/01:55am 16.3 W 17 23 1007.4 - 0.0 - - 10 - - - -
18/01:30am 17.0 WNW 22 33 1007.5 - 0.0 - Partly cloudy 10 - - - -
18/01:10am 16.1 NW 15 29 1007.2 - 0.0 - - 10 - - - -
18/01:00am 16.0 NW 13 16 1007.1 - 0.0 - - 10 - - - -
18/12:30am 16.5 NW 14 19 1007.1 - 0.0 - - 10 - - - -
18/12:00am 16.9 WNW 17 22 1007.3 F 0.0 Fine Clear 30 - - - -
 
Date/Time
EST
Temp
°C
Wind Pressure Rain since
9am
mm
Weather Cloud Vis
km
Sea
Height
m
Swell
Dir  Spd
kts
Gust
kts
hPa Trend Height
m
Period
s
Dir
17/11:30pm 16.9 WNW 19 23 1007.7 - 0.0 - - 10 - - - -
17/11:10pm 17.0 WNW 18 28 1007.5 - 0.0 - - 10 - - - -
17/11:00pm 16.7 NW 17 20 1007.4 - 0.0 - - 10 - - - -
17/10:30pm 16.8 WNW 16 19 1007.6 - 0.0 - - 10 - - - -
17/10:00pm 16.8 NW 15 18 1007.4 - 0.0 - - 10 - - - -
17/09:30pm 17.5 WNW 15 20 1007.7 - 0.0 - - 10 - - - -
17/09:00pm 18.1 WNW 15 19 1007.5 R 0.0 Fine Clear 30 - - - -
17/08:30pm 18.1 NW 15 18 1007.4 - 0.0 - - 10 - - - -
17/08:00pm 18.5 WNW 14 18 1007.5 - 0.0 - - 10 - - - -
17/07:30pm 18.6 WNW 14 18 1007.3 - 0.0 - - 10 - - - -
17/07:00pm 19.3 WNW 12 16 1007.2 - 0.0 - - 10 - - - -
17/06:30pm 19.4 WNW 14 18 1006.7 - 0.0 - - 10 - - - -
17/06:00pm 19.9 WNW 15 19 1006.2 R 0.0 Fine Mostly clear 30 - - - -
17/05:30pm 20.3 WNW 17 21 1005.6 - 0.0 - - 10 - - - -
17/05:00pm 20.9 WNW 20 27 1005.2 - 0.0 - - 10 - - - -
17/04:30pm 21.4 WNW 24 30 1004.9 - 0.0 - - 10 - - - -
17/04:01pm 21.6 WNW 20 30 1004.5 - 0.0 - - 10 - - - -
17/04:00pm 21.8 WNW 21 30 1004.5 - 0.0 - - 10 - - - -
17/03:44pm 22.3 WNW 21 31 1004.5 - 0.0 - - 10 - - - -
17/03:30pm 22.6 NW 21 27 1004.6 - 0.0 - - 10 - - - -
17/03:00pm 22.4 WNW 18 27 1004.8 F 0.0 Fine Mostly clear 30 - - - -
17/02:30pm 22.7 WNW 25 31 1005.0 - 0.0 - - 10 - - - -
17/02:20pm 23.1 WNW 18 31 1005.0 - 0.0 - - 10 - - - -
17/02:00pm 22.9 WNW 19 26 1005.0 - 0.0 - - 10 - - - -
17/01:54pm 23.3 WNW 16 26 1005.0 - 0.0 - - 10 - - - -
17/01:30pm 23.0 WNW 12 17 1005.2 - 0.0 - - 10 - - - -
17/01:00pm 22.2 NW 15 21 1005.7 - 0.0 - - 10 - - - -
17/12:30pm 21.9 WNW 14 22 1005.9 - 0.0 - - 10 - - - -
17/12:00pm 21.8 WNW 10 17 1006.6 F 0.0 Fine Mostly clear 30 - - - -
17/11:30am 21.3 WNW 10 14 1007.3 - 0.0 - - 10 - - - -
17/11:00am 20.6 WNW 9 16 1007.9 - 0.0 - - 10 - - - -
17/10:30am 19.6 WNW 9 13 1008.3 - 0.0 - - 10 - - - -
17/10:00am 19.3 NNW 7 10 1008.7 - 0.0 - - 10 - - - -
17/09:30am 18.7 NW 7 9 1008.8 - 0.0 - - 10 - - - -
17/09:00am 18.2 NW 7 9 1008.8 F 0.0 Haze Clear 25 - - - -
17/08:30am 16.8 NNW 6 8 1008.9 - 0.0 - - 10 - - - -
17/08:00am 15.6 NNW 6 8 1008.8 - 0.0 - - 10 - - - -
17/07:30am 14.0 N 6 8 1008.5 - 0.0 - - 10 - - - -
17/07:00am 12.5 N 9 10 1008.3 - 0.0 - - 10 - - - -
17/06:30am 13.3 N 8 10 1008.0 - 0.0 - - 10 - - - -
17/06:00am 12.3 N 7 8 1007.8 F 0.0 Fine Mostly clear 25 - - - -
17/05:30am 11.3 N 8 9 1007.4 - 0.0 - - 10 - - - -
17/05:00am 11.5 N 7 9 1007.6 - 0.0 - - 10 - - - -
17/04:30am 12.3 N 6 6 1007.4 - 0.0 - - 10 - - - -

Other Formats:

Comma delimited format used in spreadsheet applications
http://www.bom.gov.au/fwo/IDN60701/IDN60701.94767.axf

JavaScript Object Notation format (JSON) in row-major order
http://www.bom.gov.au/fwo/IDN60701/IDN60701.94767.json